createdAt,value
2022-08-05T00:00:32.737Z,16.07
2022-08-05T00:02:59.579Z,16.01
2022-08-05T00:06:02.495Z,15.98
2022-08-05T00:08:30.874Z,15.95
2022-08-05T00:11:01.610Z,15.89
2022-08-05T00:13:40.055Z,15.91
2022-08-05T00:16:13.910Z,15.89
2022-08-05T00:18:48.149Z,15.88
2022-08-05T00:21:16.828Z,15.88
2022-08-05T00:23:53.711Z,15.88
2022-08-05T00:26:32.138Z,15.81
2022-08-05T00:28:58.908Z,15.86
2022-08-05T00:31:54.291Z,15.91
2022-08-05T00:34:54.292Z,15.88
2022-08-05T00:37:10.923Z,15.85
2022-08-05T00:39:57.032Z,15.91
2022-08-05T00:42:36.835Z,15.91
2022-08-05T00:45:08.852Z,15.91
2022-08-05T00:47:56.676Z,15.81
2022-08-05T00:50:25.956Z,15.85
2022-08-05T00:52:55.066Z,15.77
2022-08-05T00:55:23.334Z,15.64
2022-08-05T00:58:11.115Z,15.62
2022-08-05T01:00:39.004Z,15.64
2022-08-05T01:03:07.585Z,15.52
2022-08-05T01:05:35.275Z,15.49
2022-08-05T01:08:40.334Z,15.27
2022-08-05T01:11:02.906Z,15.41
2022-08-05T01:13:59.174Z,15.42
2022-08-05T01:17:11.128Z,15.32
2022-08-05T01:20:02.452Z,15.21
2022-08-05T01:23:00.599Z,15.06
2022-08-05T01:26:08.209Z,14.92
2022-08-05T01:28:51.018Z,14.87
2022-08-05T01:31:42.538Z,14.83
2022-08-05T01:34:26.891Z,14.79
2022-08-05T01:37:09.622Z,14.73
2022-08-05T01:39:47.816Z,14.74
2022-08-05T01:42:19.515Z,14.66
2022-08-05T01:44:53.816Z,14.61
2022-08-05T01:47:23.022Z,14.60
2022-08-05T01:50:01.612Z,14.60
2022-08-05T01:52:31.663Z,14.57
2022-08-05T01:55:04.376Z,14.59
2022-08-05T01:58:11.775Z,14.62
2022-08-05T02:00:21.258Z,14.65
2022-08-05T02:03:31.887Z,14.65
2022-08-05T02:06:03.693Z,14.59
2022-08-05T02:08:58.164Z,14.59
2022-08-05T02:11:32.806Z,14.55
2022-08-05T02:14:13.156Z,14.50
2022-08-05T02:16:46.684Z,14.51
2022-08-05T02:19:28.494Z,14.53
2022-08-05T02:22:17.428Z,14.51
2022-08-05T02:24:56.795Z,14.51
2022-08-05T02:27:30.219Z,14.55
2022-08-05T02:30:17.733Z,14.60
2022-08-05T02:32:50.142Z,14.65
2022-08-05T02:35:27.703Z,14.61
2022-08-05T02:37:59.091Z,14.62
2022-08-05T02:40:27.711Z,14.58
2022-08-05T02:42:56.459Z,14.60
2022-08-05T02:45:25.672Z,14.58
2022-08-05T02:48:06.943Z,14.43
2022-08-05T02:50:43.962Z,14.31
2022-08-05T02:53:19.150Z,14.20
2022-08-05T02:55:59.527Z,14.14
2022-08-05T02:58:28.895Z,14.00
2022-08-05T03:01:01.973Z,13.96
2022-08-05T03:03:34.094Z,13.85
2022-08-05T03:06:53.762Z,13.84
2022-08-05T03:09:05.335Z,13.76
2022-08-05T03:11:57.587Z,13.76
2022-08-05T03:14:21.484Z,13.72
2022-08-05T03:16:48.431Z,13.71
2022-08-05T03:19:20.370Z,13.65
2022-08-05T03:22:01.577Z,13.68
2022-08-05T03:24:30.802Z,13.67
2022-08-05T03:27:00.875Z,13.69
2022-08-05T03:29:45.119Z,13.50
2022-08-05T03:32:15.967Z,13.60
2022-08-05T03:34:49.613Z,13.58
2022-08-05T03:37:19.599Z,13.60
2022-08-05T03:39:59.395Z,13.66
2022-08-05T03:42:32.329Z,13.69
2022-08-05T03:45:01.775Z,13.77
2022-08-05T03:47:35.182Z,13.77
2022-08-05T03:50:02.531Z,13.83
2022-08-05T03:52:38.144Z,13.87
2022-08-05T03:56:06.119Z,13.96
2022-08-05T03:58:18.039Z,14.08
2022-08-05T04:00:46.445Z,14.19
2022-08-05T04:03:28.509Z,14.28
2022-08-05T04:05:58.040Z,14.38
2022-08-05T04:08:34.892Z,14.48
2022-08-05T04:11:05.245Z,14.53
2022-08-05T04:13:50.673Z,14.74
2022-08-05T04:16:25.275Z,14.86
2022-08-05T04:18:54.343Z,14.95
2022-08-05T04:22:05.842Z,15.06
2022-08-05T04:24:18.774Z,15.20
2022-08-05T04:26:50.241Z,15.27
2022-08-05T04:29:17.101Z,15.32
2022-08-05T04:31:43.884Z,15.41
2022-08-05T04:34:33.031Z,15.47
2022-08-05T04:36:58.157Z,15.69
2022-08-05T04:39:27.503Z,15.83
2022-08-05T04:41:55.440Z,16.01
2022-08-05T04:44:30.033Z,16.07
2022-08-05T04:47:08.784Z,16.27
2022-08-05T04:50:00.964Z,16.40
2022-08-05T04:52:27.388Z,16.48
2022-08-05T04:54:56.926Z,16.57
2022-08-05T04:57:28.737Z,16.77
2022-08-05T04:59:58.955Z,16.89
2022-08-05T05:02:36.202Z,16.94
2022-08-05T05:05:25.955Z,17.11
2022-08-05T05:07:56.589Z,17.22
2022-08-05T05:10:29.619Z,17.39
2022-08-05T05:12:56.852Z,17.45
2022-08-05T05:15:57.471Z,17.41
2022-08-05T05:18:28.459Z,17.49
2022-08-05T05:21:00.530Z,17.58
2022-08-05T05:23:27.351Z,17.69
2022-08-05T05:26:14.329Z,17.85
2022-08-05T05:28:42.841Z,17.94
2022-08-05T05:31:12.293Z,18.07
2022-08-05T05:33:58.546Z,18.16
2022-08-05T05:36:28.687Z,18.30
2022-08-05T05:38:57.394Z,18.32
2022-08-05T05:41:25.040Z,18.43
2022-08-05T05:44:36.848Z,18.52
2022-08-05T05:46:53.815Z,18.72
2022-08-05T05:49:23.415Z,18.72
2022-08-05T05:51:50.905Z,18.86
2022-08-05T05:54:20.700Z,18.79
2022-08-05T05:56:48.080Z,18.96
2022-08-05T05:59:14.951Z,19.09
2022-08-05T06:01:57.669Z,19.31
2022-08-05T06:04:25.181Z,19.52
2022-08-05T06:06:52.013Z,19.66
2022-08-05T06:09:27.466Z,19.64
2022-08-05T06:12:06.496Z,19.67
2022-08-05T06:14:36.661Z,19.75
2022-08-05T06:17:32.254Z,19.86
2022-08-05T06:19:56.851Z,20.02
2022-08-05T06:22:28.690Z,20.17
2022-08-05T06:24:56.439Z,20.32
2022-08-05T06:28:08.942Z,20.48
2022-08-05T06:30:19.915Z,20.70
2022-08-05T06:32:48.520Z,20.84
2022-08-05T06:36:03.159Z,21.01
2022-08-05T06:38:11.190Z,21.05
2022-08-05T06:40:42.041Z,21.24
2022-08-05T06:43:59.048Z,21.38
2022-08-05T06:46:06.662Z,21.56
2022-08-05T06:48:54.770Z,21.75
2022-08-05T06:51:29.375Z,21.92
2022-08-05T06:54:02.028Z,22.13
2022-08-05T06:56:29.961Z,22.26
2022-08-05T06:59:00.154Z,22.44
2022-08-05T07:01:32.479Z,22.63
2022-08-05T07:04:03.189Z,22.78
2022-08-05T07:06:30.443Z,22.83
2022-08-05T07:09:00.062Z,22.99
2022-08-05T07:11:31.612Z,23.10
2022-08-05T07:14:29.923Z,23.13
2022-08-05T07:18:08.592Z,23.25
2022-08-05T07:22:39.505Z,23.61
2022-08-05T07:25:23.148Z,23.67
2022-08-05T07:28:01.405Z,23.79
2022-08-05T07:30:38.322Z,23.79
2022-08-05T07:33:16.672Z,23.98
2022-08-05T07:36:02.762Z,23.95
2022-08-05T07:38:42.823Z,24.23
2022-08-05T07:42:09.013Z,24.32
2022-08-05T07:44:03.158Z,24.53
2022-08-05T07:46:33.773Z,24.68
2022-08-05T07:49:05.864Z,24.71
2022-08-05T07:51:36.645Z,24.93
2022-08-05T07:54:05.448Z,25.24
2022-08-05T07:57:02.527Z,25.37
2022-08-05T07:59:23.207Z,25.58
2022-08-05T08:01:58.608Z,25.50
2022-08-05T08:04:37.866Z,25.52
2022-08-05T08:07:07.376Z,25.51
2022-08-05T08:09:34.922Z,25.61
2022-08-05T08:12:09.704Z,25.68
2022-08-05T08:14:46.887Z,25.84
2022-08-05T08:17:16.188Z,26.05
2022-08-05T08:20:42.926Z,26.10
2022-08-05T08:22:32.973Z,26.26
2022-08-05T08:25:03.466Z,26.57
2022-08-05T08:27:40.280Z,26.80
2022-08-05T08:30:29.415Z,26.93
2022-08-05T08:33:04.658Z,27.26
2022-08-05T08:35:40.878Z,27.17
2022-08-05T08:38:11.599Z,27.29
2022-08-05T08:40:50.545Z,27.49
2022-08-05T08:44:57.883Z,27.61
2022-08-05T08:46:09.956Z,27.43
2022-08-05T08:49:07.776Z,27.70
2022-08-05T08:52:03.596Z,27.63
2022-08-05T08:54:22.067Z,27.98
2022-08-05T08:56:56.625Z,28.23
2022-08-05T08:59:27.645Z,28.32
2022-08-05T09:02:01.901Z,28.61
2022-08-05T09:04:30.365Z,28.56
2022-08-05T09:06:58.475Z,28.71
2022-08-05T09:09:34.635Z,28.91
2022-08-05T09:12:13.568Z,28.71
2022-08-05T09:14:58.676Z,29.02
2022-08-05T09:17:42.881Z,29.10
2022-08-05T09:20:36.552Z,29.23
2022-08-05T09:23:07.746Z,29.40
2022-08-05T09:26:02.926Z,29.37
2022-08-05T09:28:32.340Z,29.81
2022-08-05T09:31:22.121Z,30.27
2022-08-05T09:34:06.294Z,30.31
2022-08-05T09:36:54.223Z,30.47
2022-08-05T09:39:39.306Z,30.68
2022-08-05T09:42:23.473Z,30.98
2022-08-05T09:44:56.438Z,31.23
2022-08-05T09:47:34.937Z,31.03
2022-08-05T09:50:05.333Z,31.00
2022-08-05T09:52:36.421Z,31.01
2022-08-05T09:55:58.453Z,30.93
2022-08-05T09:58:00.075Z,31.20
2022-08-05T10:00:29.501Z,31.36
2022-08-05T10:02:58.507Z,31.39
2022-08-05T10:05:28.283Z,31.40
2022-08-05T10:08:36.106Z,31.70
2022-08-05T10:10:50.352Z,32.03
2022-08-05T10:13:47.546Z,32.48
2022-08-05T10:16:36.876Z,32.58
2022-08-05T10:19:09.144Z,33.04
2022-08-05T10:21:40.188Z,32.91
2022-08-05T10:24:13.890Z,32.68
2022-08-05T10:26:51.996Z,32.49
2022-08-05T10:30:05.773Z,32.79
2022-08-05T10:32:52.800Z,33.31
2022-08-05T10:35:01.089Z,33.87
2022-08-05T10:37:43.914Z,34.07
2022-08-05T10:40:28.309Z,34.30
2022-08-05T10:43:08.056Z,34.09
2022-08-05T10:45:40.351Z,33.87
2022-08-05T10:48:56.700Z,33.61
2022-08-05T10:51:29.056Z,34.18
2022-08-05T10:54:28.741Z,34.42
2022-08-05T10:56:53.065Z,34.67
2022-08-05T11:00:02.482Z,35.09
2022-08-05T11:02:37.767Z,35.69
2022-08-05T11:05:06.061Z,36.43
2022-08-05T11:08:02.649Z,36.85
2022-08-05T11:10:27.255Z,36.82
2022-08-05T11:12:56.321Z,37.13
2022-08-05T11:16:00.254Z,37.68
2022-08-05T11:18:26.697Z,37.88
2022-08-05T11:20:54.067Z,37.65
2022-08-05T11:24:05.093Z,37.63
2022-08-05T11:26:28.886Z,37.48
2022-08-05T11:29:13.385Z,37.90
2022-08-05T11:31:54.441Z,38.06
2022-08-05T11:34:51.478Z,38.00
2022-08-05T11:38:36.741Z,37.96
2022-08-05T11:41:12.926Z,38.63
2022-08-05T11:44:05.002Z,38.90
2022-08-05T11:46:35.977Z,38.67
2022-08-05T11:49:05.129Z,38.47
2022-08-05T11:51:44.302Z,38.21
2022-08-05T11:54:32.724Z,37.87
2022-08-05T11:57:08.288Z,37.59
2022-08-05T11:59:50.802Z,36.80
2022-08-05T12:02:24.152Z,36.45
2022-08-05T12:04:59.893Z,36.17
2022-08-05T12:08:04.437Z,36.55
2022-08-05T12:10:23.066Z,35.84
2022-08-05T12:12:59.495Z,36.41
2022-08-05T12:15:38.256Z,36.99
2022-08-05T12:18:11.142Z,37.27
2022-08-05T12:20:39.608Z,37.24
2022-08-05T12:23:09.988Z,37.12
2022-08-05T12:26:09.541Z,37.80
2022-08-05T12:28:38.006Z,38.79
2022-08-05T12:31:06.302Z,39.84
2022-08-05T12:33:36.606Z,40.70
2022-08-05T12:36:07.924Z,41.14
2022-08-05T12:38:37.631Z,41.13
2022-08-05T12:41:16.244Z,41.01
2022-08-05T12:43:56.882Z,40.42
2022-08-05T12:46:29.413Z,39.73
2022-08-05T12:48:58.071Z,39.17
2022-08-05T12:52:14.199Z,38.75
2022-08-05T12:54:26.513Z,38.41
2022-08-05T12:56:54.786Z,38.02
2022-08-05T12:59:27.778Z,37.74
2022-08-05T13:02:16.964Z,37.26
2022-08-05T13:04:52.439Z,36.98
2022-08-05T13:07:56.129Z,36.44
2022-08-05T13:10:12.544Z,36.82
2022-08-05T13:12:51.130Z,37.70
2022-08-05T13:15:41.979Z,38.28
2022-08-05T13:18:20.133Z,39.06
2022-08-05T13:20:49.881Z,39.76
2022-08-05T13:23:22.292Z,40.46
2022-08-05T13:25:58.658Z,40.84
2022-08-05T13:28:28.059Z,40.76
2022-08-05T15:17:55.822Z,36.28
2022-08-05T15:20:24.655Z,36.41
2022-08-05T15:22:55.008Z,36.49
2022-08-05T15:25:52.971Z,36.98
2022-08-05T15:28:15.829Z,36.40
2022-08-05T15:30:45.774Z,36.85
2022-08-05T15:33:56.923Z,37.77
2022-08-05T15:36:03.659Z,38.72
2022-08-05T15:38:41.859Z,39.07
2022-08-05T15:41:23.077Z,39.77
2022-08-05T15:43:52.197Z,40.15
2022-08-05T15:46:24.437Z,39.87
2022-08-05T15:48:58.001Z,39.50
2022-08-05T15:52:04.373Z,38.29
2022-08-05T15:54:34.732Z,38.50
2022-08-05T15:57:02.291Z,39.13
2022-08-05T15:59:29.117Z,39.30
2022-08-05T16:01:56.135Z,39.88
2022-08-05T16:04:26.361Z,39.87
2022-08-05T16:06:56.518Z,39.54
2022-08-05T16:09:25.637Z,39.39
2022-08-05T16:11:54.103Z,39.20
2022-08-05T16:14:22.340Z,38.99
2022-08-05T16:16:49.774Z,38.57
2022-08-05T16:19:25.894Z,38.61
2022-08-05T16:22:04.151Z,39.10
2022-08-05T16:24:40.241Z,39.33
2022-08-05T16:27:09.716Z,39.39
2022-08-05T16:29:47.232Z,39.18
2022-08-05T16:32:17.428Z,39.39
2022-08-05T16:34:50.859Z,39.42
2022-08-05T16:38:15.172Z,38.91
2022-08-05T16:40:13.460Z,38.41
2022-08-05T16:42:52.150Z,38.14
2022-08-05T16:46:07.518Z,37.94
2022-08-05T16:48:06.160Z,37.03
2022-08-05T16:50:33.073Z,36.86
2022-08-05T16:53:01.676Z,36.60
2022-08-05T16:55:47.155Z,36.50
2022-08-05T16:58:19.809Z,36.09
2022-08-05T17:00:49.551Z,35.74
2022-08-05T17:03:20.627Z,35.48
2022-08-05T17:05:53.701Z,35.16
2022-08-05T17:08:36.134Z,34.59
2022-08-05T17:11:12.676Z,33.98
2022-08-05T17:13:45.461Z,33.34
2022-08-05T17:16:32.896Z,32.89
2022-08-05T17:19:00.216Z,32.24
2022-08-05T17:21:35.968Z,31.85
2022-08-05T17:24:19.757Z,31.50
2022-08-05T17:26:52.883Z,31.15
2022-08-05T17:29:22.304Z,30.91
2022-08-05T17:31:58.353Z,30.63
2022-08-05T17:34:32.060Z,30.31
2022-08-05T17:37:00.378Z,30.24
2022-08-05T17:39:34.269Z,29.91
2022-08-05T17:42:18.996Z,29.97
2022-08-05T17:44:51.638Z,29.76
2022-08-05T17:47:22.986Z,29.63
2022-08-05T17:50:03.972Z,29.43
2022-08-05T17:52:34.900Z,29.38
2022-08-05T17:55:21.243Z,29.15
2022-08-05T17:57:50.329Z,29.09
2022-08-05T18:00:19.127Z,28.84
2022-08-05T18:02:47.593Z,28.67
2022-08-05T18:05:16.972Z,28.49
2022-08-05T18:07:44.882Z,28.23
2022-08-05T18:10:20.387Z,28.20
2022-08-05T18:12:48.066Z,28.01
2022-08-05T18:15:14.994Z,27.88
2022-08-05T18:17:59.099Z,27.76
2022-08-05T18:20:32.771Z,27.53
2022-08-05T18:23:11.313Z,27.35
2022-08-05T18:25:45.217Z,27.22
2022-08-05T18:28:16.229Z,27.01
2022-08-05T18:30:51.080Z,26.62
2022-08-05T18:33:22.687Z,26.55
2022-08-05T18:36:00.096Z,26.22
2022-08-05T18:38:36.401Z,26.11
2022-08-05T18:41:57.470Z,25.98
2022-08-05T18:43:53.283Z,25.73
2022-08-05T18:46:20.645Z,25.57
2022-08-05T18:48:53.951Z,25.27
2022-08-05T18:52:05.024Z,25.04
2022-08-05T18:54:27.621Z,24.78
2022-08-05T18:56:57.924Z,24.58
2022-08-05T18:59:43.523Z,24.53
2022-08-05T19:02:26.501Z,24.39
2022-08-05T19:05:01.408Z,24.23
2022-08-05T19:07:46.003Z,24.08
2022-08-05T19:10:14.792Z,24.00
2022-08-05T19:12:43.290Z,23.93
2022-08-05T19:15:56.948Z,23.89
2022-08-05T19:18:08.579Z,23.89
2022-08-05T19:20:41.483Z,23.83
2022-08-05T19:24:04.140Z,23.82
2022-08-05T19:26:02.102Z,23.74
2022-08-05T19:28:33.103Z,23.52
2022-08-05T19:31:01.086Z,23.48
2022-08-05T19:33:36.275Z,23.42
2022-08-05T19:36:08.851Z,23.41
2022-08-05T19:38:36.590Z,23.33
2022-08-05T19:41:08.936Z,23.29
2022-08-05T19:44:05.940Z,23.21
2022-08-05T19:46:29.367Z,23.05
2022-08-05T19:49:03.575Z,22.82
2022-08-05T19:52:13.336Z,22.64
2022-08-05T19:54:31.443Z,22.48
2022-08-05T19:56:59.714Z,22.41
2022-08-05T19:59:55.505Z,22.30
2022-08-05T20:02:18.214Z,22.21
2022-08-05T20:04:48.241Z,22.10
2022-08-05T20:07:15.875Z,22.13
2022-08-05T20:10:11.795Z,22.06
2022-08-05T20:12:46.327Z,21.83
2022-08-05T20:15:23.002Z,21.86
2022-08-05T20:18:11.006Z,21.83
2022-08-05T20:20:51.922Z,21.77
2022-08-05T20:23:22.357Z,21.65
2022-08-05T20:25:49.247Z,21.67
2022-08-05T20:28:20.508Z,21.72
2022-08-05T20:30:49.095Z,21.67
2022-08-05T20:33:16.329Z,21.57
2022-08-05T20:35:45.498Z,21.50
2022-08-05T20:38:20.158Z,21.50
2022-08-05T20:40:53.706Z,21.41
2022-08-05T20:43:57.555Z,21.32
2022-08-05T20:46:10.279Z,21.25
2022-08-05T20:48:45.235Z,21.10
2022-08-05T20:51:18.187Z,20.96
2022-08-05T20:53:56.955Z,20.93
2022-08-05T20:56:31.846Z,20.87
2022-08-05T20:59:11.288Z,20.79
2022-08-05T21:01:42.973Z,20.72
2022-08-05T21:04:11.852Z,20.66
2022-08-05T21:06:45.559Z,20.54
2022-08-05T21:09:14.885Z,20.48
2022-08-05T21:12:07.685Z,20.43
2022-08-05T21:14:34.948Z,20.39
2022-08-05T21:17:05.087Z,20.39
2022-08-05T21:19:46.826Z,20.31
2022-08-05T21:22:23.182Z,20.33
2022-08-05T21:24:52.373Z,20.22
2022-08-05T21:27:25.391Z,20.14
2022-08-05T21:29:56.467Z,20.19
2022-08-05T21:32:26.921Z,20.10
2022-08-05T21:35:08.421Z,19.95
2022-08-05T21:37:53.027Z,19.82
2022-08-05T21:40:24.147Z,19.86
2022-08-05T21:42:53.736Z,19.88
2022-08-05T21:45:25.257Z,19.88
2022-08-05T21:48:10.191Z,19.88
2022-08-05T21:50:41.668Z,19.77
2022-08-05T21:53:20.067Z,19.73
2022-08-05T21:56:04.211Z,19.75
2022-08-05T21:58:34.020Z,19.71
2022-08-05T22:01:01.399Z,19.68
2022-08-05T22:03:48.473Z,19.64
2022-08-05T22:06:22.854Z,19.68
2022-08-05T22:09:02.026Z,19.68
2022-08-05T22:11:41.562Z,19.70
2022-08-05T22:14:33.397Z,19.60
2022-08-05T22:17:03.081Z,19.51
2022-08-05T22:20:03.414Z,19.49
2022-08-05T22:22:27.912Z,19.34
2022-08-05T22:25:27.327Z,19.32
2022-08-05T22:28:11.198Z,19.18
2022-08-05T22:30:44.162Z,19.15
2022-08-05T22:33:57.881Z,19.05
2022-08-05T22:36:15.512Z,19.12
2022-08-05T22:38:48.510Z,19.07
2022-08-05T22:41:26.187Z,19.04
2022-08-05T22:44:08.187Z,18.93
2022-08-05T22:46:39.757Z,18.86
2022-08-05T22:49:23.429Z,18.86
2022-08-05T22:52:06.873Z,18.71
2022-08-05T22:54:36.892Z,18.61
2022-08-05T22:57:05.663Z,18.56
2022-08-05T22:59:46.311Z,18.60
2022-08-05T23:02:29.208Z,18.53
2022-08-05T23:04:58.058Z,18.59
2022-08-05T23:07:30.266Z,18.57
2022-08-05T23:10:01.662Z,18.54
2022-08-05T23:12:32.907Z,18.61
2022-08-05T23:15:03.314Z,18.53
2022-08-05T23:17:35.106Z,18.52
2022-08-05T23:20:16.326Z,18.45
2022-08-05T23:22:47.496Z,18.36
2022-08-05T23:25:51.305Z,18.33
2022-08-05T23:28:07.120Z,18.25
2022-08-05T23:30:40.113Z,18.17
2022-08-05T23:33:16.486Z,18.03
2022-08-05T23:35:50.785Z,17.94
2022-08-05T23:38:18.403Z,17.85
2022-08-05T23:40:49.412Z,17.76
2022-08-05T23:43:25.047Z,17.57
2022-08-05T23:46:19.802Z,17.50
2022-08-05T23:48:59.876Z,17.47
2022-08-05T23:52:07.630Z,17.38
2022-08-05T23:54:38.089Z,17.42
2022-08-05T23:57:06.914Z,17.45
